Temp: 9.2°C   Baro: 1006.7mb
  Wind: 6.0mph   Dir: NNW (347°)
  Rain: 0.0mm (0.0mm/hr)
  Solar: 0W/m2  Hum: 85%

10 day detailed forecast for Bath, United Kingdom

Last update: 04.06.2020 01:10
Next update: 04.06.2020 07:18
Latitude: 51.38° N
Longitude: 2.36° W
meteogram
    Temperature Precipitation Pressure Wind Humidity Clouds Fog
 03:56     20:19 Today
03:00   1007.4 mb 9 mph 83% 48%
04:00   1007.1 mb 8 mph 84% 17%
05:00   1006.9 mb 9 mph 84% 39%
06:00   1007.0 mb 10 mph 79% 73%
07:00   1006.8 mb 11 mph 73% 75%
08:00   1006.6 mb 11 mph 64% 98%
09:00   1006.5 mb 11 mph 58% 96%
10:00 0.1 mm 1005.7 mb 9 mph 53% 96%
11:00   1005.2 mb 10 mph 49% 100%
12:00   1004.6 mb 9 mph 47% 99%
13:00   1004.2 mb 9 mph 47% 100%
14:00   1003.8 mb 11 mph 48% 99%
15:00   1003.2 mb 13 mph 45% 99%
16:00   1002.5 mb 13 mph 43% 100%
17:00   1002.7 mb 13 mph 56% 96%
18:00   1002.5 mb 14 mph 57% 100%
19:00   1002.3 mb 10 mph 56% 88%
20:00   1002.1 mb 9 mph 60% 80%
21:00   1002.1 mb 10 mph 66% 100%
22:00 0.3 mm 1001.6 mb 10 mph 79% 88%
23:00   1001.0 mb 10 mph 85% 73%
 03:55     20:20 Tomorrow
00:00   1000.1 mb 9 mph 87% 56%
01:00   999.4 mb 9 mph 91% 63%
02:00 0.1 mm 998.8 mb 10 mph 85% 68%
03:00 0.1 mm 998.6 mb 11 mph 84% 97%
04:00   998.5 mb 10 mph 77% 57%
05:00   998.5 mb 11 mph 74% 3%
06:00   998.6 mb 12 mph 70% 4%
07:00   998.6 mb 14 mph 64% 26%
08:00   998.5 mb 16 mph 57% 23%
09:00   998.5 mb 17 mph 48% 20%
10:00   998.5 mb 18 mph 44% 35%
11:00   998.6 mb 17 mph 39% 61%
12:00   998.8 mb 18 mph 42% 37%
13:00 0.1 mm 999.0 mb 18 mph 41% 47%
14:00 0.2 mm 999.0 mb 19 mph 40% 48%
15:00 0.3 mm 999.1 mb 18 mph 41% 21%
16:00   999.0 mb 18 mph 40% 16%
17:00   998.9 mb 18 mph 40% 70%
18:00   999.1 mb 16 mph 48% 80%
19:00   999.4 mb 14 mph 53% 86%
20:00   999.8 mb 13 mph 57% 7%
21:00   1000.7 mb 12 mph 62% 1%
22:00   1001.0 mb 12 mph 66% 1%
23:00   1001.0 mb 12 mph 70% 0%
 03:55     20:21 Saturday 06.06.2020
00:00   1000.9 mb 12 mph 73% 1%
01:00   1000.8 mb 11 mph 74% 2%
02:00   1000.7 mb 11 mph 74% 11%
03:00   1000.6 mb 12 mph 73% 11%
04:00   1000.5 mb 14 mph 71% 9%
05:00   1000.3 mb 15 mph 71% 54%
06:00   1000.1 mb 17 mph 68% 23%
07:00   999.9 mb 22 mph 60% 67%
08:00   999.9 mb 22 mph 57% 95%
09:00   1000.0 mb 21 mph 59% 100%
10:00   1000.1 mb 20 mph 61% 100%
11:00   1000.5 mb 19 mph 64% 100%
12:00 0.1 mm 1000.6 mb 19 mph 66% 100%
13:00 0.1 mm 1000.6 mb 19 mph 67% 100%
14:00 0.1 mm 1000.5 mb 17 mph 66% 48%
15:00   1000.4 mb 17 mph 57% 36%
16:00 0.2 mm 1000.6 mb 18 mph 55% 54%
17:00 0.4 mm 1001.2 mb 14 mph 60% 60%
18:00 0.3 mm 1002.1 mb 13 mph 63% 50%
 03:54     20:22 Sunday 07.06.2020
00:00   1004.3 mb 9 mph 93% 0%
06:00   1006.4 mb 9 mph 87% 83%
12:00 0.2 mm 1008.3 mb 12 mph 49% 95%
18:00 0.2 mm 1011.7 mb 7 mph 64% 90%
 03:54     20:23 Monday 08.06.2020
00:00   1015.4 mb 4 mph 94% 49%
06:00   1016.9 mb 5 mph 76% 100%
12:00   1018.2 mb 9 mph 57% 100%
18:00   1018.2 mb 10 mph 45% 83%
 03:53     20:23 Tuesday 09.06.2020
00:00   1020.5 mb 6 mph 60% 86%
06:00   1020.8 mb 10 mph 63% 53%
12:00 0.2 mm 1020.5 mb 11 mph 60% 98%
18:00 0.1 mm 1020.3 mb 6 mph 55% 91%
 03:53     20:24 Wednesday 10.06.2020
00:00   1020.8 mb 4 mph 71% 86%
06:00   1020.7 mb 6 mph 71% 99%
12:00   1020.2 mb 8 mph 43% 100%
18:00   1020.2 mb 7 mph 67% 88%
 03:53     20:25 Thursday 11.06.2020
00:00   1021.3 mb 5 mph 68% 95%
06:00   1020.1 mb 8 mph 83% 98%
12:00 0.6 mm 1018.9 mb 11 mph 65% 78%
18:00 0.1 mm 1017.8 mb 12 mph 60% 96%
 03:52     20:25 Friday 12.06.2020
00:00   1019.9 mb 7 mph 77% 45%
06:00   1018.1 mb 9 mph 80% 34%
12:00   1014.2 mb 8 mph 47% 72%
18:00   1009.5 mb 8 mph 48% 99%
 03:52     20:26 Saturday 13.06.2020
00:00   1006.8 mb 5 mph 86% 6%
06:00   1003.3 mb 4 mph 93% 98%